Time;durP1;ratioP1;P1;durP2;ratioP2;P2;SDS_P1;SDS_P2;PMS_P1;PMS_P2;Temp;Humidity;BMP_temperature;BMP_pressure;BME280_temperature;BME280_humidity;BME280_pressure;Samples;Min_cycle;Max_cycle;Signal;HPM_P1;HPM_P2
2023/06/07 00:01:12;;;;;;;;;20.33;15.33;;;;;16.67;68.68;101659.53;5078110;27;46550;-70
2023/06/07 00:03:38;;;;;;;;;18.33;14.33;;;;;16.75;69.21;101675.22;5077925;27;45294;-71
2023/06/07 00:06:05;;;;;;;;;22.67;19.67;;;;;16.65;68.84;101658.69;5077755;27;45234;-71
2023/06/07 00:08:31;;;;;;;;;19.00;16.33;;;;;16.74;68.70;101669.97;5077914;27;45434;-71
2023/06/07 00:10:57;;;;;;;;;19.33;15.67;;;;;16.66;69.20;101656.94;5077966;27;46069;-71
2023/06/07 00:13:22;;;;;;;;;18.00;16.67;;;;;16.62;68.87;101661.47;5078115;28;45383;-71
2023/06/07 00:15:48;;;;;;;;;23.67;18.67;;;;;16.64;68.99;101667.63;5077875;27;45196;-71
2023/06/07 00:18:15;;;;;;;;;8.67;1.00;;;;;16.60;69.03;101667.75;5077887;27;45339;-71
2023/06/07 00:20:44;;;;;;;;;18.33;15.33;;;;;16.61;69.74;101673.00;5078157;28;46692;-71
2023/06/07 00:23:10;;;;;;;;;20.00;16.67;;;;;16.62;69.69;101665.94;5077661;27;45440;-71
2023/06/07 00:25:35;;;;;;;;;20.33;17.33;;;;;16.55;69.47;101654.63;5077727;27;45454;-70
2023/06/07 00:28:01;;;;;;;;;19.33;15.67;;;;;16.59;69.56;101668.69;5077724;27;45534;-71
2023/06/07 00:30:26;;;;;;;;;17.33;14.67;;;;;16.56;69.57;101671.47;5077110;27;46894;-71
2023/06/07 00:32:52;;;;;;;;;17.33;14.67;;;;;16.39;69.95;101651.59;5078080;27;45337;-71
2023/06/07 00:35:17;;;;;;;;;21.00;18.33;;;;;16.51;69.89;101675.13;5077846;27;45494;-71
2023/06/07 00:37:42;;;;;;;;;19.00;16.67;;;;;16.51;70.24;101674.25;5077723;27;45332;-70
2023/06/07 00:40:08;;;;;;;;;24.67;18.00;;;;;16.30;70.54;101630.63;5072335;27;46452;-70
2023/06/07 00:42:33;;;;;;;;;15.00;12.67;;;;;16.49;70.21;101670.78;5057286;28;45201;-70
2023/06/07 00:44:59;;;;;;;;;19.33;17.67;;;;;16.46;70.43;101660.25;5057402;28;45207;-70
2023/06/07 00:47:26;;;;;;;;;17.67;14.33;;;;;16.26;70.16;101637.81;5067549;28;45575;-69
2023/06/07 00:49:52;;;;;;;;;21.00;15.67;;;;;16.50;70.34;101673.38;5076983;27;46286;-70
2023/06/07 00:52:19;;;;;;;;;15.33;13.00;;;;;16.42;70.08;101656.81;5077546;27;45298;-70
2023/06/07 00:54:44;;;;;;;;;22.33;19.33;;;;;16.45;70.45;101663.81;5077306;27;45475;-69
2023/06/07 00:57:10;;;;;;;;;20.33;13.33;;;;;16.47;70.50;101673.50;5077772;27;45220;-69
2023/06/07 00:59:37;;;;;;;;;24.00;18.33;;;;;16.43;70.57;101665.66;5077223;27;46292;-70
2023/06/07 01:02:03;;;;;;;;;18.67;16.33;;;;;16.43;70.34;101671.84;5077435;27;45327;-70
2023/06/07 01:04:29;;;;;;;;;26.67;19.33;;;;;16.43;71.07;101673.66;5077586;27;45348;-69
2023/06/07 01:06:55;;;;;;;;;26.00;20.00;;;;;16.32;70.52;101648.28;5077614;27;45354;-69
2023/06/07 01:09:22;;;;;;;;;22.67;20.33;;;;;16.39;71.00;101664.03;5076910;27;46311;-69
2023/06/07 01:11:50;;;;;;;;;23.00;17.67;;;;;16.41;71.14;101664.84;5077191;27;45445;-70
2023/06/07 01:14:17;;;;;;;;;24.33;16.33;;;;;16.32;71.04;101645.63;5076787;27;45257;-70
2023/06/07 01:16:44;;;;;;;;;20.33;18.67;;;;;16.31;71.00;101651.84;5077856;27;45543;-69
2023/06/07 01:19:23;;;;;;;;;19.67;13.67;;;;;16.41;70.81;101664.84;5080094;27;47578;-69
2023/06/07 01:21:51;;;;;;;;;20.00;17.33;;;;;16.38;71.03;101659.63;5080663;27;45410;-69
2023/06/07 01:24:18;;;;;;;;;20.00;18.67;;;;;16.42;70.93;101666.59;5080758;27;45317;-71
2023/06/07 01:26:45;;;;;;;;;23.67;19.33;;;;;16.33;71.27;101659.78;5080810;27;45161;-70
2023/06/07 01:29:12;;;;;;;;;23.67;21.00;;;;;16.38;71.08;101659.63;5080150;27;45441;-70
2023/06/07 01:31:39;;;;;;;;;23.67;15.33;;;;;16.31;71.13;101661.63;5080215;28;45386;-70
2023/06/07 01:34:07;;;;;;;;;21.67;18.67;;;;;16.35;71.36;101664.13;5080595;27;45420;-70
2023/06/07 01:36:34;;;;;;;;;30.33;21.67;;;;;16.27;71.49;101649.34;5080487;27;45464;-69
2023/06/07 01:39:01;;;;;;;;;28.67;19.00;;;;;16.29;71.13;101653.66;5080309;27;46575;-69
2023/06/07 01:41:30;;;;;;;;;21.33;17.33;;;;;16.25;71.94;101654.72;5080293;27;45504;-69
2023/06/07 01:43:57;;;;;;;;;28.33;23.00;;;;;16.26;71.48;101650.25;5080316;27;45301;-69
2023/06/07 01:46:24;;;;;;;;;37.67;22.33;;;;;16.19;72.22;101649.56;5080386;27;45513;-69
2023/06/07 01:48:50;;;;;;;;;24.67;21.33;;;;;16.26;72.16;101650.25;5080178;27;46553;-69
2023/06/07 01:51:15;;;;;;;;;27.67;25.67;;;;;16.20;72.65;101659.28;5079912;27;45468;-69
2023/06/07 01:53:41;;;;;;;;;33.33;21.67;;;;;16.15;72.51;101635.53;5080383;27;45342;-70
2023/06/07 01:56:40;;;;;;;;;21.33;20.00;;;;;16.22;71.46;101656.59;5080519;27;45347;-70
2023/06/07 01:59:22;;;;;;;;;25.67;20.67;;;;;16.20;72.14;101648.66;5080021;27;45468;-70
2023/06/07 02:02:12;;;;;;;;;30.67;24.33;;;;;16.21;71.61;101649.53;5079623;27;45432;-70
2023/06/07 02:04:42;;;;;;;;;28.33;24.33;;;;;16.19;72.00;101638.94;5080111;27;45361;-70
2023/06/07 02:07:12;;;;;;;;;26.67;22.67;;;;;16.17;73.01;101646.97;5080278;27;45311;-70
2023/06/07 02:09:40;;;;;;;;;29.00;24.00;;;;;16.06;72.34;101638.50;5079451;27;46074;-70
2023/06/07 02:12:08;;;;;;;;;27.00;23.33;;;;;16.11;72.28;101647.16;5079917;27;45403;-70
2023/06/07 02:14:36;;;;;;;;;31.67;25.67;;;;;16.06;72.68;101635.84;5079992;27;45413;-70
2023/06/07 02:17:05;;;;;;;;;23.00;20.00;;;;;16.07;73.00;101631.38;5080072;27;45410;-70
2023/06/07 02:19:32;;;;;;;;;29.33;25.00;;;;;16.05;72.37;101636.75;5079530;27;45516;-70
2023/06/07 02:21:58;;;;;;;;;26.00;22.33;;;;;16.06;72.68;101626.97;5078516;28;45334;-70
2023/06/07 02:24:25;;;;;;;;;24.67;24.67;;;;;16.06;73.08;101637.59;5079663;27;45252;-70
2023/06/07 02:26:53;;;;;;;;;26.33;23.33;;;;;16.06;72.84;101634.94;5079677;27;45311;-69
2023/06/07 02:29:20;;;;;;;;;28.67;23.33;;;;;16.05;73.30;101630.53;5078332;27;46595;-69
2023/06/07 02:31:49;;;;;;;;;29.67;24.33;;;;;16.01;72.78;101629.78;5079150;27;45447;-69
2023/06/07 02:34:14;;;;;;;;;31.33;26.00;;;;;15.95;73.15;101619.34;5079817;27;45279;-69
2023/06/07 02:36:40;;;;;;;;;27.67;23.33;;;;;16.01;73.20;101638.59;5079779;28;45260;-70
2023/06/07 02:39:07;;;;;;;;;28.00;22.67;;;;;16.00;72.79;101647.50;5079251;27;46029;-70
2023/06/07 02:41:33;;;;;;;;;33.67;26.00;;;;;15.92;73.08;101622.09;5079450;27;45331;-69
2023/06/07 02:43:59;;;;;;;;;25.67;21.33;;;;;15.97;72.92;101641.41;5079516;27;45391;-69
2023/06/07 02:46:24;;;;;;;;;26.67;24.00;;;;;15.72;72.99;101602.28;5079538;27;45540;-70
2023/06/07 02:48:50;;;;;;;;;31.00;25.33;;;;;15.91;73.37;101634.50;5078497;27;47138;-70
2023/06/07 02:51:15;;;;;;;;;34.33;26.33;;;;;15.89;73.22;101631.03;5079317;27;45491;-69
2023/06/07 02:53:41;;;;;;;;;30.67;27.33;;;;;15.87;73.53;101638.16;5079107;27;45792;-70
2023/06/07 02:56:09;;;;;;;;;28.67;24.00;;;;;15.88;72.94;101639.06;5079433;27;45376;-69
2023/06/07 02:58:34;;;;;;;;;30.33;27.33;;;;;15.85;73.42;101640.00;5079161;27;47215;-69
2023/06/07 03:01:00;;;;;;;;;28.67;24.33;;;;;15.81;73.53;101635.69;5076777;27;46674;-70
2023/06/07 03:03:25;;;;;;;;;22.33;22.33;;;;;15.76;73.43;101622.53;5073899;28;45556;-70
2023/06/07 03:05:52;;;;;;;;;25.00;25.00;;;;;15.81;73.63;101646.31;5079476;27;45310;-70
2023/06/07 03:08:18;;;;;;;;;36.67;23.33;;;;;15.75;73.91;101641.16;5078601;27;46440;-70
2023/06/07 03:10:44;;;;;;;;;28.33;23.33;;;;;15.78;73.91;101641.06;5078918;27;45274;-70
2023/06/07 03:13:09;;;;;;;;;32.00;28.00;;;;;15.72;74.01;101643.91;5078835;27;45407;-70
2023/06/07 03:15:35;;;;;;;;;34.33;27.67;;;;;15.67;73.65;101630.78;5078656;27;45634;-70
2023/06/07 03:18:03;;;;;;;;;34.00;28.00;;;;;15.75;73.76;101644.69;5078550;27;46225;-69
2023/06/07 03:20:28;;;;;;;;;35.00;31.67;;;;;15.70;73.73;101640.41;5078625;27;45303;-69
2023/06/07 03:22:55;;;;;;;;;33.00;28.00;;;;;15.67;73.68;101642.28;5078934;27;45311;-69
2023/06/07 03:25:20;;;;;;;;;29.33;25.00;;;;;15.64;74.16;101637.06;5078889;27;45380;-69
2023/06/07 03:27:46;;;;;;;;;36.33;28.00;;;;;15.70;73.61;101649.28;5078260;27;46300;-69
2023/06/07 03:30:11;;;;;;;;;30.33;26.33;;;;;15.63;73.57;101640.63;5078507;27;45239;-69
2023/06/07 03:32:37;;;;;;;;;30.67;24.67;;;;;15.70;73.57;101646.63;5078545;27;45259;-69
2023/06/07 03:35:02;;;;;;;;;31.33;27.00;;;;;15.60;73.63;101634.53;5078773;27;45220;-69
2023/06/07 03:37:28;;;;;;;;;36.00;27.67;;;;;15.69;74.01;101655.50;5078249;27;45400;-69
2023/06/07 03:39:53;;;;;;;;;34.00;28.33;;;;;15.66;73.54;101651.13;5078095;27;45229;-69
2023/06/07 03:42:18;;;;;;;;;35.33;28.33;;;;;15.63;73.50;101650.38;5078668;27;45424;-69
2023/06/07 03:44:44;;;;;;;;;43.67;37.33;;;;;15.66;73.86;101647.63;5078331;27;45346;-69
2023/06/07 03:47:09;;;;;;;;;35.67;29.33;;;;;15.55;74.06;101636.44;5078406;27;45412;-69
2023/06/07 03:49:34;;;;;;;;;28.67;24.33;;;;;15.61;72.70;101647.78;5078311;27;45251;-70
2023/06/07 03:52:00;;;;;;;;;30.00;27.00;;;;;15.62;73.33;101657.44;5078377;27;45742;-69
2023/06/07 03:54:25;;;;;;;;;27.67;27.67;;;;;15.59;73.31;101654.88;5078636;27;45213;-68
2023/06/07 03:56:50;;;;;;;;;26.67;20.33;;;;;15.54;73.40;101643.56;5078092;27;46623;-68
2023/06/07 03:59:20;;;;;;;;;37.00;29.33;;;;;15.46;74.09;101641.09;5077909;27;45401;-69
2023/06/07 04:01:48;;;;;;;;;34.00;31.00;;;;;15.54;74.00;101662.13;5078163;27;45314;-69
2023/06/07 04:04:13;;;;;;;;;36.50;29.50;;;;;15.46;74.38;101651.72;5078268;27;45304;-69
2023/06/07 04:06:39;;;;;;;;;34.33;30.00;;;;;15.52;73.54;101657.78;5077959;27;46516;-69
2023/06/07 04:09:06;;;;;;;;;37.67;28.67;;;;;15.50;73.94;101650.72;5078076;27;45220;-69
2023/06/07 04:11:32;;;;;;;;;31.67;29.33;;;;;15.18;74.04;101593.28;5077797;27;45482;-69
2023/06/07 04:13:57;;;;;;;;;32.67;26.00;;;;;15.51;73.64;101651.59;5078131;27;45289;-69
2023/06/07 04:16:22;;;;;;;;;40.67;31.67;;;;;15.50;73.66;101648.06;5077516;27;46325;-69
2023/06/07 04:18:48;;;;;;;;;30.67;29.33;;;;;15.51;73.97;101654.25;5078133;27;45375;-69
2023/06/07 04:21:13;;;;;;;;;41.00;33.33;;;;;15.44;74.04;101642.09;5078111;27;45288;-69
2023/06/07 04:23:41;;;;;;;;;33.00;28.33;;;;;15.45;73.84;101644.69;5078110;27;45379;-69
2023/06/07 04:26:08;;;;;;;;;30.33;28.00;;;;;15.49;73.86;101653.41;5077796;27;47359;-69
2023/06/07 04:28:34;;;;;;;;;34.33;28.67;;;;;15.45;73.68;101646.44;5077197;27;45291;-69
2023/06/07 04:30:59;;;;;;;;;33.67;27.67;;;;;15.46;73.48;101650.84;5077252;27;45762;-68
2023/06/07 04:33:27;;;;;;;;;35.33;28.33;;;;;15.50;73.83;101648.06;5077785;27;45541;-69
2023/06/07 04:35:57;;;;;;;;;33.33;28.67;;;;;15.46;73.26;101641.09;5077661;27;45542;-69
2023/06/07 04:38:23;;;;;;;;;35.00;30.67;;;;;15.48;73.39;101647.25;5077390;27;45211;-69
2023/06/07 04:40:49;;;;;;;;;29.33;27.33;;;;;15.44;73.66;101636.78;5077619;27;45303;-68
2023/06/07 04:43:18;;;;;;;;;35.00;26.33;;;;;15.50;73.78;101653.38;5077706;27;45437;-69
2023/06/07 04:45:46;;;;;;;;;36.00;29.00;;;;;15.46;73.58;101650.84;5077503;27;46538;-69
2023/06/07 04:48:12;;;;;;;;;31.33;25.33;;;;;15.49;73.63;101650.75;5077228;27;45224;-70
2023/06/07 04:50:41;;;;;;;;;42.00;33.67;;;;;15.54;73.18;101653.28;5076974;28;45449;-69
2023/06/07 04:53:08;;;;;;;;;32.67;27.67;;;;;15.50;73.34;101642.75;5080227;27;45507;-70
2023/06/07 04:55:34;;;;;;;;;32.00;29.00;;;;;15.62;72.89;101654.78;5080611;27;45705;-70
2023/06/07 04:58:04;;;;;;;;;30.00;26.67;;;;;15.63;72.72;101650.38;5081107;27;45403;-71
2023/06/07 05:00:33;;;;;;;;;30.33;27.00;;;;;15.63;72.55;101639.75;5080434;27;45457;-69
2023/06/07 05:03:06;;;;;;;;;27.00;25.33;;;;;15.69;72.36;101651.97;5080560;27;45445;-69
2023/06/07 05:05:33;;;;;;;;;34.00;30.00;;;;;15.73;72.36;101649.19;5080350;27;46738;-69
2023/06/07 05:07:58;;;;;;;;;30.00;28.67;;;;;15.79;72.07;101650.81;5080452;27;45421;-69
2023/06/07 05:10:24;;;;;;;;;30.33;28.00;;;;;15.62;71.57;101614.97;5080622;27;46860;-70
2023/06/07 05:12:49;;;;;;;;;27.67;25.33;;;;;15.88;71.16;101654.97;5081283;27;45508;-69
2023/06/07 05:15:15;;;;;;;;;32.33;29.33;;;;;15.89;71.80;101651.38;5080741;27;46323;-69
2023/06/07 05:17:40;;;;;;;;;29.00;29.00;;;;;15.86;71.91;101641.75;5079816;27;45337;-69
2023/06/07 05:20:10;;;;;;;;;32.00;29.00;;;;;15.94;71.32;101647.69;5063874;27;45557;-70
2023/06/07 05:22:37;;;;;;;;;31.67;27.00;;;;;15.92;71.16;101628.28;5060723;28;45686;-69
2023/06/07 05:25:02;;;;;;;;;29.33;25.00;;;;;16.06;70.53;101654.44;5060191;28;46558;-69
2023/06/07 05:27:27;;;;;;;;;30.67;29.33;;;;;16.04;70.59;101664.22;5059849;28;45362;-69
2023/06/07 05:29:53;;;;;;;;;28.00;27.00;;;;;15.87;70.77;101647.94;5068377;27;45407;-69
2023/06/07 05:32:18;;;;;;;;;26.67;26.00;;;;;15.84;70.82;101659.50;5074400;27;45383;-69
2023/06/07 05:34:45;;;;;;;;;29.00;28.00;;;;;15.83;71.14;101661.31;5060209;28;45442;-69
2023/06/07 05:37:12;;;;;;;;;29.67;24.33;;;;;15.77;71.94;101653.50;5066054;28;45325;-69
2023/06/07 05:39:37;;;;;;;;;27.33;24.00;;;;;15.89;71.50;101662.91;5080088;27;45487;-69
2023/06/07 05:42:03;;;;;;;;;32.67;28.33;;;;;15.93;71.00;101663.66;5080917;27;45329;-69
2023/06/07 05:44:29;;;;;;;;;25.00;22.67;;;;;15.84;71.41;101644.47;5080072;27;47449;-69
2023/06/07 05:46:54;;;;;;;;;29.33;25.00;;;;;16.03;71.49;101675.75;5079275;27;45557;-70
2023/06/07 05:49:19;;;;;;;;;28.33;22.33;;;;;16.13;70.93;101684.31;5080286;27;45495;-69
2023/06/07 05:51:45;;;;;;;;;28.33;24.33;;;;;16.19;70.64;101676.16;5080278;27;45391;-68
2023/06/07 05:54:10;;;;;;;;;29.00;27.00;;;;;16.25;70.56;101678.63;5080247;27;46315;-70
2023/06/07 05:56:35;;;;;;;;;35.33;29.67;;;;;16.36;69.96;101692.41;5079644;27;45418;-70
2023/06/07 05:59:01;;;;;;;;;30.67;21.33;;;;;16.40;70.03;101682.59;5080296;27;45814;-70
2023/06/07 06:01:27;;;;;;;;;32.67;25.33;;;;;16.55;69.25;101683.88;5079519;27;45475;-70
2023/06/07 06:03:52;;;;;;;;;23.67;21.67;;;;;16.70;69.15;101699.31;5060816;27;46442;-70
2023/06/07 06:06:18;;;;;;;;;24.67;22.00;;;;;16.73;68.52;101681.50;5059835;28;45397;-70
2023/06/07 06:08:45;;;;;;;;;30.00;22.00;;;;;16.73;68.22;101682.41;5059827;28;45373;-69
2023/06/07 06:11:12;;;;;;;;;25.67;23.67;;;;;16.64;68.07;101675.59;5059992;28;45437;-70
2023/06/07 06:13:41;;;;;;;;;30.67;26.67;;;;;16.65;68.31;101687.97;5059627;28;46645;-69
2023/06/07 06:16:06;;;;;;;;;26.33;22.67;;;;;16.73;68.79;101689.50;5059490;28;45431;-70
2023/06/07 06:18:32;;;;;;;;;29.67;24.00;;;;;16.82;68.20;101682.09;5059550;28;45454;-70
2023/06/07 06:20:58;;;;;;;;;25.67;22.33;;;;;16.84;68.02;101679.38;5059939;28;45335;-70
2023/06/07 06:23:24;;;;;;;;;27.00;19.33;;;;;16.93;67.95;101676.41;5059488;28;45404;-69
2023/06/07 06:25:50;;;;;;;;;38.00;25.33;;;;;17.08;67.45;101684.78;5059446;28;45331;-69
2023/06/07 06:28:16;;;;;;;;;28.67;23.33;;;;;17.25;67.03;101668.22;5059175;28;45420;-70
2023/06/07 06:30:42;;;;;;;;;25.00;25.00;;;;;17.44;66.98;101679.97;5063500;28;45455;-70
2023/06/07 06:33:07;;;;;;;;;28.33;27.00;;;;;17.60;66.23;101685.59;5063677;28;45408;-69
2023/06/07 06:35:32;;;;;;;;;30.33;25.00;;;;;17.72;65.87;101690.44;5059039;28;45246;-69
2023/06/07 06:37:58;;;;;;;;;25.33;22.33;;;;;17.81;65.45;101680.38;5059488;28;45348;-69
2023/06/07 06:40:24;;;;;;;;;36.33;25.33;;;;;17.96;64.77;101687.78;5061973;28;45664;-70
2023/06/07 06:42:49;;;;;;;;;23.33;19.67;;;;;17.96;64.69;101690.47;5078489;27;46990;-69
2023/06/07 06:45:15;;;;;;;;;22.00;21.33;;;;;18.06;64.50;101688.31;5079373;27;45470;-69
2023/06/07 06:47:41;;;;;;;;;24.33;21.33;;;;;18.22;64.32;101696.56;5079397;27;45723;-69
2023/06/07 06:50:12;;;;;;;;;22.67;21.00;;;;;18.34;63.89;101703.22;5079452;27;45467;-69
2023/06/07 06:52:38;;;;;;;;;30.67;24.67;;;;;18.12;63.66;101664.06;5078053;27;46470;-69
2023/06/07 06:55:04;;;;;;;;;28.00;22.33;;;;;18.38;63.52;101700.34;5063947;27;45793;-69
2023/06/07 06:57:29;;;;;;;;;29.00;22.33;;;;;18.46;63.64;101702.72;5078776;28;45232;-69
2023/06/07 06:59:55;;;;;;;;;27.00;23.67;;;;;18.45;63.24;101691.19;5079503;27;45445;-69
2023/06/07 07:02:20;;;;;;;;;27.67;22.33;;;;;18.40;62.87;101695.84;5079112;27;45450;-69
2023/06/07 07:04:46;;;;;;;;;25.67;20.00;;;;;18.37;63.59;101695.09;5079144;27;45257;-70
2023/06/07 07:07:11;;;;;;;;;25.67;20.67;;;;;18.45;63.30;101711.66;5079097;27;45316;-68
2023/06/07 07:09:37;;;;;;;;;27.33;21.67;;;;;18.55;63.24;101701.50;5078491;27;45359;-68
2023/06/07 07:12:03;;;;;;;;;27.67;25.00;;;;;18.67;62.90;101698.31;5078092;27;45982;-68
2023/06/07 07:14:28;;;;;;;;;26.00;21.33;;;;;18.91;62.46;101706.25;5076494;27;45445;-68
2023/06/07 07:16:53;;;;;;;;;23.67;21.00;;;;;19.33;61.72;101702.66;5073096;27;45437;-68
2023/06/07 07:19:19;;;;;;;;;23.33;21.00;;;;;20.99;56.95;101693.06;5072372;27;45474;-68
2023/06/07 07:21:44;;;;;;;;;26.00;23.67;;;;;21.38;55.64;101687.41;5078167;27;46226;-68
2023/06/07 07:24:10;;;;;;;;;32.67;25.33;;;;;21.07;55.20;101692.66;5077950;27;45581;-68
2023/06/07 07:26:35;;;;;;;;;25.67;19.67;;;;;20.79;56.03;101686.03;5078015;27;45247;-69
2023/06/07 07:29:01;;;;;;;;;26.67;23.00;;;;;21.19;55.88;101697.38;5077550;27;45312;-69
2023/06/07 07:31:30;;;;;;;;;29.00;26.00;;;;;21.15;54.68;101679.72;5072438;27;45398;-69
2023/06/07 07:33:56;;;;;;;;;23.67;21.67;;;;;21.03;55.59;101694.63;5077495;27;45220;-69
2023/06/07 07:36:22;;;;;;;;;25.00;21.00;;;;;20.80;55.73;101687.78;5074743;27;45426;-69
2023/06/07 07:38:48;;;;;;;;;24.67;19.33;;;;;20.62;55.98;101690.41;5076109;27;45468;-69
2023/06/07 07:41:14;;;;;;;;;32.33;25.00;;;;;20.55;56.60;101704.16;5078505;27;47436;-68
2023/06/07 07:43:40;;;;;;;;;25.33;19.33;;;;;20.47;56.67;101704.53;5078307;27;45448;-69
2023/06/07 07:46:06;;;;;;;;;24.33;20.33;;;;;20.31;56.67;101701.75;5077577;27;45425;-69
2023/06/07 07:48:31;;;;;;;;;23.67;20.33;;;;;20.25;57.25;101707.41;5078559;27;45496;-68
2023/06/07 07:50:57;;;;;;;;;31.00;24.00;;;;;20.13;57.55;101698.16;5073088;27;47175;-69
2023/06/07 07:53:22;;;;;;;;;22.00;19.33;;;;;20.13;57.65;101692.81;5076795;28;45458;-68
2023/06/07 07:55:47;;;;;;;;;21.67;19.00;;;;;20.22;57.75;101691.50;5077441;27;45329;-69
2023/06/07 07:58:13;;;;;;;;;25.67;22.00;;;;;20.32;57.40;101690.97;5077654;27;45229;-69
2023/06/07 08:00:39;;;;;;;;;23.67;20.00;;;;;20.37;56.93;101688.06;5077334;27;45548;-69
2023/06/07 08:03:05;;;;;;;;;21.67;17.67;;;;;20.37;56.89;101689.88;5077238;27;45398;-68
2023/06/07 08:05:30;;;;;;;;;26.33;20.67;;;;;20.38;56.78;101689.81;5077546;27;45261;-68
2023/06/07 08:07:57;;;;;;;;;27.67;21.33;;;;;20.40;56.99;101690.59;5077600;27;45413;-68
2023/06/07 08:10:22;;;;;;;;;23.33;19.00;;;;;20.40;57.01;101682.56;5077279;27;46265;-68
2023/06/07 08:12:47;;;;;;;;;23.67;22.00;;;;;20.45;57.31;101685.88;5077055;27;45437;-68
2023/06/07 08:15:13;;;;;;;;;26.67;22.33;;;;;20.52;57.04;101673.94;5077262;27;45873;-68
2023/06/07 08:17:39;;;;;;;;;25.00;20.67;;;;;20.67;56.65;101688.38;5077669;27;45299;-68
2023/06/07 08:20:07;;;;;;;;;24.33;22.67;;;;;20.70;56.43;101672.16;5076740;27;45441;-68
2023/06/07 08:22:33;;;;;;;;;24.00;19.00;;;;;20.62;56.50;101655.63;5074630;28;45630;-68
2023/06/07 08:24:58;;;;;;;;;36.00;30.00;;;;;20.76;56.51;101673.66;5076927;27;45537;-69
2023/06/07 08:27:26;;;;;;;;;28.67;26.00;;;;;21.03;55.94;101676.75;5077450;27;45296;-69
2023/06/07 08:29:51;;;;;;;;;29.67;23.00;;;;;21.90;54.31;101659.59;5077728;27;46576;-69
2023/06/07 08:32:16;;;;;;;;;30.00;24.67;;;;;22.63;51.99;101674.28;5076302;27;45541;-68
2023/06/07 08:34:42;;;;;;;;;31.00;27.00;;;;;22.55;51.80;101674.75;5075809;28;45518;-67
2023/06/07 08:37:07;;;;;;;;;20.00;19.00;;;;;22.33;52.20;101676.94;5074244;27;45429;-68
2023/06/07 08:39:33;;;;;;;;;29.00;22.00;;;;;22.15;52.54;101663.59;5073265;27;45450;-67
2023/06/07 08:41:59;;;;;;;;;24.00;19.67;;;;;22.05;52.44;101665.06;5077472;28;45395;-68
2023/06/07 08:44:25;;;;;;;;;25.33;20.67;;;;;22.24;52.50;101667.56;5076076;28;45384;-67
2023/06/07 08:46:52;;;;;;;;;25.33;22.67;;;;;22.42;51.88;101661.16;5076460;27;45493;-68
2023/06/07 08:49:18;;;;;;;;;22.00;20.67;;;;;22.70;51.23;101669.41;5071970;27;46425;-68
2023/06/07 08:51:46;;;;;;;;;25.33;19.00;;;;;22.68;51.70;101679.38;5074351;28;45652;-67
2023/06/07 08:54:15;;;;;;;;;23.67;20.33;;;;;22.67;51.35;101672.25;5077685;27;45398;-67
2023/06/07 08:56:42;;;;;;;;;27.00;22.33;;;;;22.81;50.68;101676.81;5077632;27;45347;-67
2023/06/07 08:59:08;;;;;;;;;29.33;23.67;;;;;22.80;51.32;101669.72;5075854;28;46634;-68
2023/06/07 09:01:37;;;;;;;;;30.00;20.67;;;;;22.87;50.70;101668.41;5077102;27;45423;-68
2023/06/07 09:04:02;;;;;;;;;25.00;20.67;;;;;23.03;50.87;101671.88;5077195;27;45485;-68
2023/06/07 09:06:28;;;;;;;;;23.00;20.67;;;;;23.36;50.14;101683.38;5077617;28;45409;-68
2023/06/07 09:08:53;;;;;;;;;24.33;20.00;;;;;23.56;49.37;101680.31;5077173;27;46737;-67
2023/06/07 09:11:19;;;;;;;;;19.67;19.67;;;;;23.73;49.29;101675.69;5077328;27;45311;-67
2023/06/07 09:13:45;;;;;;;;;20.67;20.67;;;;;24.08;48.64;101669.88;5077411;27;45379;-67
2023/06/07 09:16:11;;;;;;;;;24.00;19.33;;;;;24.22;47.44;101669.00;5077419;27;45545;-67
2023/06/07 09:18:53;;;;;;;;;22.67;21.67;;;;;24.46;47.29;101674.59;5077147;27;46173;-67
2023/06/07 09:21:26;;;;;;;;;31.67;21.33;;;;;24.59;47.17;101685.41;5077093;27;45317;-67
2023/06/07 09:23:53;;;;;;;;;24.33;22.67;;;;;24.59;46.06;101694.38;5077134;27;45426;-68
2023/06/07 09:26:22;;;;;;;;;20.33;18.00;;;;;24.49;46.49;101671.69;5077169;28;45438;-68
2023/06/07 09:28:48;;;;;;;;;21.00;19.33;;;;;24.52;46.53;101685.78;5076804;27;46522;-67
2023/06/07 09:31:32;;;;;;;;;24.33;21.00;;;;;24.59;46.79;101675.53;5076969;28;45565;-67
2023/06/07 09:33:58;;;;;;;;;26.33;19.67;;;;;24.85;46.20;101675.59;5076863;27;45380;-67
2023/06/07 09:36:23;;;;;;;;;24.00;20.33;;;;;25.08;45.56;101660.53;5077212;28;45212;-68
2023/06/07 09:38:49;;;;;;;;;21.33;18.67;;;;;25.37;45.13;101666.59;5078706;27;45381;-68
2023/06/07 09:41:14;;;;;;;;;23.33;20.67;;;;;25.91;44.14;101678.03;5080502;27;45173;-68
2023/06/07 09:43:47;;;;;;;;;21.33;19.67;;;;;26.32;43.35;101666.03;5080722;27;45404;-67
2023/06/07 09:46:14;;;;;;;;;20.00;17.00;;;;;26.42;42.71;101669.75;5080552;27;45445;-68
2023/06/07 09:48:52;;;;;;;;;23.00;22.00;;;;;26.44;43.23;101668.78;5080100;28;45987;-67
2023/06/07 09:51:20;;;;;;;;;19.67;18.67;;;;;26.38;44.22;101673.66;5080046;27;45431;-67
2023/06/07 09:53:54;;;;;;;;;24.00;18.33;;;;;26.24;42.43;101660.34;5080309;27;45376;-67
2023/06/07 09:56:24;;;;;;;;;22.33;21.67;;;;;26.10;42.97;101656.00;5080225;27;45469;-67
2023/06/07 09:59:10;;;;;;;;;22.67;19.67;;;;;26.09;43.47;101656.09;5080123;27;45428;-67
2023/06/07 10:01:45;;;;;;;;;17.67;17.67;;;;;26.29;43.95;101665.41;5080612;27;45452;-68
2023/06/07 10:04:12;;;;;;;;;21.00;17.67;;;;;27.37;41.42;101651.75;5079942;27;45438;-68
2023/06/07 10:06:40;;;;;;;;;20.00;18.67;;;;;28.72;41.29;101641.63;5080155;27;45362;-68
2023/06/07 10:09:06;;;;;;;;;23.67;18.33;;;;;30.58;38.33;101643.13;5079813;27;46045;-67
2023/06/07 10:11:33;;;;;;;;;20.67;19.67;;;;;32.41;36.73;101642.63;5079953;28;45350;-68
2023/06/07 10:14:11;;;;;;;;;18.67;17.67;;;;;33.97;34.58;101649.06;5079848;27;45281;-69
2023/06/07 10:16:42;;;;;;;;;21.00;17.67;;;;;35.14;32.96;101650.78;5080152;27;45466;-69
2023/06/07 10:19:17;;;;;;;;;20.33;15.00;;;;;35.97;31.17;101654.06;5079557;27;46166;-69
2023/06/07 10:21:47;;;;;;;;;23.33;16.67;;;;;36.37;31.63;101652.94;5079681;27;45365;-68
2023/06/07 10:24:20;;;;;;;;;20.67;18.67;;;;;36.12;30.03;101645.91;5079705;27;45440;-69
2023/06/07 10:27:01;;;;;;;;;19.33;17.33;;;;;35.87;30.85;101646.06;5079973;27;45485;-68
2023/06/07 10:29:37;;;;;;;;;15.33;15.33;;;;;35.73;30.96;101640.28;5079771;28;45391;-69
2023/06/07 10:32:12;;;;;;;;;17.00;16.00;;;;;35.58;29.56;101639.34;5079412;27;45438;-69
2023/06/07 10:34:38;;;;;;;;;16.67;16.33;;;;;35.70;29.00;101639.81;5079619;27;45225;-69
2023/06/07 10:37:07;;;;;;;;;19.33;16.00;;;;;35.97;28.82;101643.94;5079761;27;45521;-69
2023/06/07 10:39:34;;;;;;;;;55.00;44.75;;;;;35.90;28.32;101641.09;5079251;28;46001;-69
2023/06/07 10:42:00;;;;;;;;;18.67;17.33;;;;;36.21;29.00;101631.09;5077922;27;45456;-69
2023/06/07 10:44:25;;;;;;;;;16.67;15.00;;;;;36.76;27.68;101634.59;5079644;28;45296;-69
2023/06/07 10:47:23;;;;;;;;;18.67;16.00;;;;;37.52;28.26;101625.38;5079539;28;45295;-69
2023/06/07 10:49:50;;;;;;;;;17.00;16.00;;;;;38.19;26.30;101617.88;5077884;27;46785;-69
2023/06/07 10:52:16;;;;;;;;;22.00;20.00;;;;;38.65;25.15;101617.44;5078894;27;45550;-69
2023/06/07 10:54:43;;;;;;;;;15.67;15.67;;;;;38.93;24.50;101630.34;5079307;27;45445;-69
2023/06/07 10:57:09;;;;;;;;;15.00;12.00;;;;;39.01;24.42;101621.91;5079443;27;45253;-69
2023/06/07 10:59:35;;;;;;;;;17.00;15.00;;;;;38.51;24.35;101613.72;5078381;28;45364;-69
2023/06/07 11:02:20;;;;;;;;;19.00;17.33;;;;;37.55;24.57;101613.97;5079138;27;45351;-69
2023/06/07 11:04:56;;;;;;;;;15.67;14.67;;;;;36.51;25.70;101596.44;5078913;28;45370;-69
2023/06/07 11:07:30;;;;;;;;;14.33;14.00;;;;;35.65;26.79;101598.38;5079368;27;45363;-69
2023/06/07 11:10:02;;;;;;;;;16.00;15.00;;;;;35.08;26.35;101600.31;5078492;27;45521;-68